sensor_id;sensor_type;location;lat;lon;timestamp;P1;durP1;ratioP1;P2;durP2;ratioP2
57331;SDS011;43164;50.908;18.092;2024-02-15T00:00:32;23.90;;;12.40;;
57331;SDS011;43164;50.908;18.092;2024-02-15T00:03:01;26.80;;;14.00;;
57331;SDS011;43164;50.908;18.092;2024-02-15T00:05:29;25.50;;;14.00;;
57331;SDS011;43164;50.908;18.092;2024-02-15T00:07:56;24.80;;;13.70;;
57331;SDS011;43164;50.908;18.092;2024-02-15T00:10:24;25.60;;;13.40;;
57331;SDS011;43164;50.908;18.092;2024-02-15T00:12:52;23.90;;;13.20;;
57331;SDS011;43164;50.908;18.092;2024-02-15T00:15:19;25.90;;;13.30;;
57331;SDS011;43164;50.908;18.092;2024-02-15T00:17:46;26.80;;;14.30;;
57331;SDS011;43164;50.908;18.092;2024-02-15T00:20:14;25.40;;;15.00;;
57331;SDS011;43164;50.908;18.092;2024-02-15T00:22:42;25.30;;;14.70;;
57331;SDS011;43164;50.908;18.092;2024-02-15T00:25:10;21.80;;;12.60;;
57331;SDS011;43164;50.908;18.092;2024-02-15T00:27:40;24.30;;;12.90;;
57331;SDS011;43164;50.908;18.092;2024-02-15T00:30:08;22.60;;;11.70;;
57331;SDS011;43164;50.908;18.092;2024-02-15T00:32:36;27.00;;;13.40;;
57331;SDS011;43164;50.908;18.092;2024-02-15T00:35:05;24.50;;;12.70;;
57331;SDS011;43164;50.908;18.092;2024-02-15T00:37:34;22.80;;;12.90;;
57331;SDS011;43164;50.908;18.092;2024-02-15T00:40:02;23.80;;;12.80;;
57331;SDS011;43164;50.908;18.092;2024-02-15T00:42:31;23.20;;;12.00;;
57331;SDS011;43164;50.908;18.092;2024-02-15T00:44:58;23.20;;;12.50;;
57331;SDS011;43164;50.908;18.092;2024-02-15T00:47:26;22.30;;;12.40;;
57331;SDS011;43164;50.908;18.092;2024-02-15T00:49:54;23.00;;;12.90;;
57331;SDS011;43164;50.908;18.092;2024-02-15T00:52:23;23.50;;;12.90;;
57331;SDS011;43164;50.908;18.092;2024-02-15T00:54:54;24.60;;;13.00;;
57331;SDS011;43164;50.908;18.092;2024-02-15T00:57:22;24.50;;;13.30;;
57331;SDS011;43164;50.908;18.092;2024-02-15T00:59:50;23.60;;;12.70;;
57331;SDS011;43164;50.908;18.092;2024-02-15T01:02:18;22.30;;;12.40;;
57331;SDS011;43164;50.908;18.092;2024-02-15T01:04:48;24.70;;;12.40;;
57331;SDS011;43164;50.908;18.092;2024-02-15T01:07:17;21.70;;;12.00;;
57331;SDS011;43164;50.908;18.092;2024-02-15T01:09:45;24.80;;;11.80;;
57331;SDS011;43164;50.908;18.092;2024-02-15T01:12:11;18.70;;;11.80;;
57331;SDS011;43164;50.908;18.092;2024-02-15T01:14:39;21.10;;;12.10;;
57331;SDS011;43164;50.908;18.092;2024-02-15T01:17:08;22.50;;;11.90;;
57331;SDS011;43164;50.908;18.092;2024-02-15T01:19:35;23.40;;;12.50;;
57331;SDS011;43164;50.908;18.092;2024-02-15T01:22:04;20.50;;;11.70;;
57331;SDS011;43164;50.908;18.092;2024-02-15T01:24:33;23.00;;;12.20;;
57331;SDS011;43164;50.908;18.092;2024-02-15T01:27:01;22.00;;;13.20;;
57331;SDS011;43164;50.908;18.092;2024-02-15T01:29:28;21.70;;;12.40;;
57331;SDS011;43164;50.908;18.092;2024-02-15T01:31:56;22.40;;;12.00;;
57331;SDS011;43164;50.908;18.092;2024-02-15T01:34:25;22.70;;;12.70;;
57331;SDS011;43164;50.908;18.092;2024-02-15T01:36:52;22.20;;;12.20;;
57331;SDS011;43164;50.908;18.092;2024-02-15T01:39:20;21.80;;;11.60;;
57331;SDS011;43164;50.908;18.092;2024-02-15T01:41:47;20.90;;;11.40;;
57331;SDS011;43164;50.908;18.092;2024-02-15T01:44:22;19.70;;;11.10;;
57331;SDS011;43164;50.908;18.092;2024-02-15T01:46:51;21.60;;;11.80;;
57331;SDS011;43164;50.908;18.092;2024-02-15T01:49:21;21.20;;;11.30;;
57331;SDS011;43164;50.908;18.092;2024-02-15T01:51:49;21.80;;;11.50;;
57331;SDS011;43164;50.908;18.092;2024-02-15T01:54:16;21.20;;;11.40;;
57331;SDS011;43164;50.908;18.092;2024-02-15T01:56:45;22.70;;;11.10;;
57331;SDS011;43164;50.908;18.092;2024-02-15T01:59:17;22.80;;;11.80;;
57331;SDS011;43164;50.908;18.092;2024-02-15T02:01:47;23.80;;;12.00;;
57331;SDS011;43164;50.908;18.092;2024-02-15T02:04:14;21.80;;;11.50;;
57331;SDS011;43164;50.908;18.092;2024-02-15T02:06:42;22.30;;;11.50;;
57331;SDS011;43164;50.908;18.092;2024-02-15T02:09:12;23.60;;;12.20;;
57331;SDS011;43164;50.908;18.092;2024-02-15T02:11:47;21.20;;;11.50;;
57331;SDS011;43164;50.908;18.092;2024-02-15T02:14:14;21.70;;;11.80;;
57331;SDS011;43164;50.908;18.092;2024-02-15T02:16:43;22.30;;;12.10;;
57331;SDS011;43164;50.908;18.092;2024-02-15T02:19:10;23.00;;;12.40;;
57331;SDS011;43164;50.908;18.092;2024-02-15T02:21:42;22.10;;;11.90;;
57331;SDS011;43164;50.908;18.092;2024-02-15T02:24:16;19.70;;;10.70;;
57331;SDS011;43164;50.908;18.092;2024-02-15T02:26:52;20.70;;;11.20;;
57331;SDS011;43164;50.908;18.092;2024-02-15T02:29:19;21.70;;;11.60;;
57331;SDS011;43164;50.908;18.092;2024-02-15T02:31:48;22.10;;;11.50;;
57331;SDS011;43164;50.908;18.092;2024-02-15T02:34:17;20.70;;;11.30;;
57331;SDS011;43164;50.908;18.092;2024-02-15T02:36:47;18.60;;;10.50;;
57331;SDS011;43164;50.908;18.092;2024-02-15T02:39:15;23.00;;;11.30;;
57331;SDS011;43164;50.908;18.092;2024-02-15T02:41:43;20.80;;;11.70;;
57331;SDS011;43164;50.908;18.092;2024-02-15T02:44:11;21.70;;;11.40;;
57331;SDS011;43164;50.908;18.092;2024-02-15T02:46:39;23.10;;;12.30;;
57331;SDS011;43164;50.908;18.092;2024-02-15T02:49:12;22.40;;;12.00;;
57331;SDS011;43164;50.908;18.092;2024-02-15T02:51:40;21.20;;;12.30;;
57331;SDS011;43164;50.908;18.092;2024-02-15T02:54:09;22.00;;;11.40;;
57331;SDS011;43164;50.908;18.092;2024-02-15T02:56:36;20.10;;;10.70;;
57331;SDS011;43164;50.908;18.092;2024-02-15T02:59:04;20.80;;;11.30;;
57331;SDS011;43164;50.908;18.092;2024-02-15T03:01:32;19.40;;;11.00;;
57331;SDS011;43164;50.908;18.092;2024-02-15T03:04:00;21.70;;;11.80;;
57331;SDS011;43164;50.908;18.092;2024-02-15T03:06:28;18.70;;;11.00;;
57331;SDS011;43164;50.908;18.092;2024-02-15T03:08:56;20.90;;;11.50;;
57331;SDS011;43164;50.908;18.092;2024-02-15T03:11:24;18.60;;;10.30;;
57331;SDS011;43164;50.908;18.092;2024-02-15T03:13:51;19.50;;;11.30;;
57331;SDS011;43164;50.908;18.092;2024-02-15T03:16:24;19.90;;;10.70;;
57331;SDS011;43164;50.908;18.092;2024-02-15T03:18:51;18.60;;;10.80;;
57331;SDS011;43164;50.908;18.092;2024-02-15T03:21:19;19.90;;;11.60;;
57331;SDS011;43164;50.908;18.092;2024-02-15T03:23:46;22.20;;;11.20;;
57331;SDS011;43164;50.908;18.092;2024-02-15T03:26:19;21.00;;;11.30;;
57331;SDS011;43164;50.908;18.092;2024-02-15T03:29:06;19.00;;;11.00;;
57331;SDS011;43164;50.908;18.092;2024-02-15T03:31:36;19.50;;;11.20;;
57331;SDS011;43164;50.908;18.092;2024-02-15T03:34:04;21.20;;;10.90;;
57331;SDS011;43164;50.908;18.092;2024-02-15T03:36:32;20.40;;;11.70;;
57331;SDS011;43164;50.908;18.092;2024-02-15T03:39:01;22.80;;;12.10;;
57331;SDS011;43164;50.908;18.092;2024-02-15T03:41:29;26.20;;;13.70;;
57331;SDS011;43164;50.908;18.092;2024-02-15T03:44:00;24.10;;;12.80;;
57331;SDS011;43164;50.908;18.092;2024-02-15T03:46:28;18.70;;;11.10;;
57331;SDS011;43164;50.908;18.092;2024-02-15T03:48:55;19.90;;;10.20;;
57331;SDS011;43164;50.908;18.092;2024-02-15T03:51:23;20.40;;;10.80;;
57331;SDS011;43164;50.908;18.092;2024-02-15T03:53:53;20.10;;;11.00;;
57331;SDS011;43164;50.908;18.092;2024-02-15T03:56:21;19.30;;;11.20;;
57331;SDS011;43164;50.908;18.092;2024-02-15T03:58:48;20.10;;;10.80;;
57331;SDS011;43164;50.908;18.092;2024-02-15T04:01:17;21.10;;;11.40;;
57331;SDS011;43164;50.908;18.092;2024-02-15T04:03:44;20.70;;;11.00;;
57331;SDS011;43164;50.908;18.092;2024-02-15T04:06:13;22.10;;;10.80;;
57331;SDS011;43164;50.908;18.092;2024-02-15T04:08:43;21.60;;;10.60;;
57331;SDS011;43164;50.908;18.092;2024-02-15T04:11:11;21.50;;;11.20;;
57331;SDS011;43164;50.908;18.092;2024-02-15T04:13:37;21.20;;;11.30;;
57331;SDS011;43164;50.908;18.092;2024-02-15T04:16:05;21.10;;;10.80;;
57331;SDS011;43164;50.908;18.092;2024-02-15T04:18:32;18.60;;;10.90;;
57331;SDS011;43164;50.908;18.092;2024-02-15T04:20:59;20.50;;;10.90;;
57331;SDS011;43164;50.908;18.092;2024-02-15T04:23:27;20.30;;;10.50;;
57331;SDS011;43164;50.908;18.092;2024-02-15T04:25:56;18.60;;;11.00;;
57331;SDS011;43164;50.908;18.092;2024-02-15T04:28:25;19.70;;;11.10;;
57331;SDS011;43164;50.908;18.092;2024-02-15T04:30:53;19.90;;;11.40;;
57331;SDS011;43164;50.908;18.092;2024-02-15T04:33:21;19.90;;;11.20;;
57331;SDS011;43164;50.908;18.092;2024-02-15T04:35:50;22.00;;;10.30;;
57331;SDS011;43164;50.908;18.092;2024-02-15T04:38:18;18.50;;;10.60;;
57331;SDS011;43164;50.908;18.092;2024-02-15T04:40:46;20.50;;;11.10;;
57331;SDS011;43164;50.908;18.092;2024-02-15T04:43:14;21.70;;;11.00;;
57331;SDS011;43164;50.908;18.092;2024-02-15T04:45:41;18.60;;;10.90;;
57331;SDS011;43164;50.908;18.092;2024-02-15T04:48:11;21.80;;;11.10;;
57331;SDS011;43164;50.908;18.092;2024-02-15T04:50:41;19.90;;;10.80;;
57331;SDS011;43164;50.908;18.092;2024-02-15T04:53:10;21.10;;;11.30;;
57331;SDS011;43164;50.908;18.092;2024-02-15T04:55:38;18.20;;;10.60;;
57331;SDS011;43164;50.908;18.092;2024-02-15T04:58:06;22.50;;;11.10;;
57331;SDS011;43164;50.908;18.092;2024-02-15T05:00:34;20.80;;;11.20;;
57331;SDS011;43164;50.908;18.092;2024-02-15T05:03:03;18.60;;;10.80;;
57331;SDS011;43164;50.908;18.092;2024-02-15T05:05:31;19.50;;;11.30;;
57331;SDS011;43164;50.908;18.092;2024-02-15T05:07:58;19.40;;;10.90;;
57331;SDS011;43164;50.908;18.092;2024-02-15T05:10:27;20.80;;;11.60;;
57331;SDS011;43164;50.908;18.092;2024-02-15T05:12:55;23.40;;;11.50;;
57331;SDS011;43164;50.908;18.092;2024-02-15T05:15:23;18.80;;;11.00;;
57331;SDS011;43164;50.908;18.092;2024-02-15T05:17:56;18.90;;;10.80;;
57331;SDS011;43164;50.908;18.092;2024-02-15T05:20:24;19.70;;;9.80;;
57331;SDS011;43164;50.908;18.092;2024-02-15T05:22:53;21.00;;;10.90;;
57331;SDS011;43164;50.908;18.092;2024-02-15T05:25:21;19.60;;;10.30;;
57331;SDS011;43164;50.908;18.092;2024-02-15T05:27:56;17.70;;;9.50;;
57331;SDS011;43164;50.908;18.092;2024-02-15T05:30:24;19.50;;;10.80;;
57331;SDS011;43164;50.908;18.092;2024-02-15T05:32:52;18.40;;;10.50;;
57331;SDS011;43164;50.908;18.092;2024-02-15T05:35:19;18.10;;;10.30;;
57331;SDS011;43164;50.908;18.092;2024-02-15T05:37:47;19.80;;;10.30;;
57331;SDS011;43164;50.908;18.092;2024-02-15T05:40:14;18.90;;;10.00;;
57331;SDS011;43164;50.908;18.092;2024-02-15T05:42:45;18.90;;;10.60;;
57331;SDS011;43164;50.908;18.092;2024-02-15T05:47:55;18.30;;;10.50;;
57331;SDS011;43164;50.908;18.092;2024-02-15T05:50:23;20.70;;;10.40;;
57331;SDS011;43164;50.908;18.092;2024-02-15T05:52:50;19.60;;;10.10;;
57331;SDS011;43164;50.908;18.092;2024-02-15T05:55:20;17.80;;;10.00;;
57331;SDS011;43164;50.908;18.092;2024-02-15T05:57:47;20.90;;;9.60;;
57331;SDS011;43164;50.908;18.092;2024-02-15T06:00:14;20.30;;;10.00;;
57331;SDS011;43164;50.908;18.092;2024-02-15T06:02:40;19.40;;;10.10;;
57331;SDS011;43164;50.908;18.092;2024-02-15T06:05:10;19.00;;;10.10;;
57331;SDS011;43164;50.908;18.092;2024-02-15T06:07:38;17.80;;;10.00;;
57331;SDS011;43164;50.908;18.092;2024-02-15T06:10:05;17.40;;;9.60;;
57331;SDS011;43164;50.908;18.092;2024-02-15T06:12:34;16.50;;;10.20;;
57331;SDS011;43164;50.908;18.092;2024-02-15T06:15:03;18.20;;;10.00;;
57331;SDS011;43164;50.908;18.092;2024-02-15T06:17:32;20.60;;;11.80;;
57331;SDS011;43164;50.908;18.092;2024-02-15T06:20:12;22.30;;;11.10;;
57331;SDS011;43164;50.908;18.092;2024-02-15T06:22:48;21.20;;;11.80;;
57331;SDS011;43164;50.908;18.092;2024-02-15T06:25:20;21.70;;;12.10;;
57331;SDS011;43164;50.908;18.092;2024-02-15T06:27:47;22.80;;;11.70;;
57331;SDS011;43164;50.908;18.092;2024-02-15T06:30:21;19.80;;;10.70;;
57331;SDS011;43164;50.908;18.092;2024-02-15T06:33:07;19.30;;;9.80;;
57331;SDS011;43164;50.908;18.092;2024-02-15T06:35:54;19.30;;;10.10;;
57331;SDS011;43164;50.908;18.092;2024-02-15T06:38:41;18.00;;;10.00;;
57331;SDS011;43164;50.908;18.092;2024-02-15T06:41:27;19.10;;;10.50;;
57331;SDS011;43164;50.908;18.092;2024-02-15T06:43:56;19.80;;;10.90;;
57331;SDS011;43164;50.908;18.092;2024-02-15T06:46:24;19.70;;;11.00;;
57331;SDS011;43164;50.908;18.092;2024-02-15T06:48:51;16.90;;;9.80;;
57331;SDS011;43164;50.908;18.092;2024-02-15T06:51:19;17.50;;;9.90;;
57331;SDS011;43164;50.908;18.092;2024-02-15T06:53:47;18.60;;;9.90;;
57331;SDS011;43164;50.908;18.092;2024-02-15T06:56:15;18.70;;;10.40;;
57331;SDS011;43164;50.908;18.092;2024-02-15T06:58:42;19.10;;;10.10;;
57331;SDS011;43164;50.908;18.092;2024-02-15T07:01:09;17.90;;;9.30;;
57331;SDS011;43164;50.908;18.092;2024-02-15T07:03:45;17.60;;;9.60;;
57331;SDS011;43164;50.908;18.092;2024-02-15T07:06:13;19.30;;;11.10;;
57331;SDS011;43164;50.908;18.092;2024-02-15T07:08:41;18.50;;;11.30;;
57331;SDS011;43164;50.908;18.092;2024-02-15T07:11:09;18.70;;;10.70;;
57331;SDS011;43164;50.908;18.092;2024-02-15T07:13:36;19.60;;;11.50;;
57331;SDS011;43164;50.908;18.092;2024-02-15T07:16:08;20.50;;;11.50;;
57331;SDS011;43164;50.908;18.092;2024-02-15T07:18:35;20.30;;;12.30;;
57331;SDS011;43164;50.908;18.092;2024-02-15T07:21:03;19.60;;;11.30;;
57331;SDS011;43164;50.908;18.092;2024-02-15T07:23:36;20.10;;;11.60;;
57331;SDS011;43164;50.908;18.092;2024-02-15T07:26:04;19.40;;;11.50;;
57331;SDS011;43164;50.908;18.092;2024-02-15T07:28:31;18.40;;;11.00;;
57331;SDS011;43164;50.908;18.092;2024-02-15T07:30:58;19.00;;;11.90;;
57331;SDS011;43164;50.908;18.092;2024-02-15T07:33:29;17.10;;;10.00;;
57331;SDS011;43164;50.908;18.092;2024-02-15T07:35:55;21.20;;;11.30;;
57331;SDS011;43164;50.908;18.092;2024-02-15T07:38:24;18.10;;;10.60;;
57331;SDS011;43164;50.908;18.092;2024-02-15T07:40:52;18.00;;;10.30;;
57331;SDS011;43164;50.908;18.092;2024-02-15T07:43:20;19.90;;;10.70;;
57331;SDS011;43164;50.908;18.092;2024-02-15T07:45:48;17.80;;;10.40;;
57331;SDS011;43164;50.908;18.092;2024-02-15T07:48:16;17.90;;;10.50;;
57331;SDS011;43164;50.908;18.092;2024-02-15T07:50:44;18.20;;;10.30;;
57331;SDS011;43164;50.908;18.092;2024-02-15T07:53:12;16.90;;;10.30;;
57331;SDS011;43164;50.908;18.092;2024-02-15T07:55:40;19.20;;;10.10;;
57331;SDS011;43164;50.908;18.092;2024-02-15T07:58:09;19.10;;;10.60;;
57331;SDS011;43164;50.908;18.092;2024-02-15T08:00:38;18.10;;;10.10;;
57331;SDS011;43164;50.908;18.092;2024-02-15T08:03:06;19.70;;;10.30;;
57331;SDS011;43164;50.908;18.092;2024-02-15T08:05:34;17.40;;;9.70;;
57331;SDS011;43164;50.908;18.092;2024-02-15T08:08:04;17.90;;;9.90;;
57331;SDS011;43164;50.908;18.092;2024-02-15T08:10:32;19.00;;;9.60;;
57331;SDS011;43164;50.908;18.092;2024-02-15T08:13:00;16.30;;;9.40;;
57331;SDS011;43164;50.908;18.092;2024-02-15T08:15:28;17.60;;;9.60;;
57331;SDS011;43164;50.908;18.092;2024-02-15T08:17:55;17.40;;;9.30;;
57331;SDS011;43164;50.908;18.092;2024-02-15T08:20:24;17.30;;;9.40;;
57331;SDS011;43164;50.908;18.092;2024-02-15T08:22:53;18.30;;;9.70;;
57331;SDS011;43164;50.908;18.092;2024-02-15T08:25:19;17.60;;;8.60;;
57331;SDS011;43164;50.908;18.092;2024-02-15T08:27:47;15.10;;;8.60;;
57331;SDS011;43164;50.908;18.092;2024-02-15T08:30:16;16.40;;;8.90;;
57331;SDS011;43164;50.908;18.092;2024-02-15T08:32:44;16.10;;;8.40;;
57331;SDS011;43164;50.908;18.092;2024-02-15T08:35:12;15.30;;;7.60;;
57331;SDS011;43164;50.908;18.092;2024-02-15T08:37:40;13.80;;;7.80;;
57331;SDS011;43164;50.908;18.092;2024-02-15T08:40:08;15.20;;;7.50;;
57331;SDS011;43164;50.908;18.092;2024-02-15T08:42:42;13.50;;;7.50;;
57331;SDS011;43164;50.908;18.092;2024-02-15T08:45:10;17.10;;;7.00;;
57331;SDS011;43164;50.908;18.092;2024-02-15T08:47:39;14.00;;;6.40;;
57331;SDS011;43164;50.908;18.092;2024-02-15T08:50:08;13.30;;;7.20;;
57331;SDS011;43164;50.908;18.092;2024-02-15T08:52:36;15.70;;;8.10;;
57331;SDS011;43164;50.908;18.092;2024-02-15T08:55:10;13.90;;;7.50;;
57331;SDS011;43164;50.908;18.092;2024-02-15T08:57:44;14.70;;;8.30;;
57331;SDS011;43164;50.908;18.092;2024-02-15T09:00:12;15.00;;;7.40;;
57331;SDS011;43164;50.908;18.092;2024-02-15T09:02:46;12.40;;;7.00;;
57331;SDS011;43164;50.908;18.092;2024-02-15T09:05:13;11.30;;;6.20;;
57331;SDS011;43164;50.908;18.092;2024-02-15T09:07:41;13.50;;;6.70;;
57331;SDS011;43164;50.908;18.092;2024-02-15T09:10:31;11.90;;;6.40;;
57331;SDS011;43164;50.908;18.092;2024-02-15T09:13:00;11.80;;;6.90;;
57331;SDS011;43164;50.908;18.092;2024-02-15T09:15:28;12.80;;;6.60;;
57331;SDS011;43164;50.908;18.092;2024-02-15T09:17:57;13.90;;;6.70;;
57331;SDS011;43164;50.908;18.092;2024-02-15T09:20:25;12.90;;;6.70;;
57331;SDS011;43164;50.908;18.092;2024-02-15T09:22:55;13.30;;;7.30;;
57331;SDS011;43164;50.908;18.092;2024-02-15T09:25:22;13.60;;;6.40;;
57331;SDS011;43164;50.908;18.092;2024-02-15T09:27:50;15.10;;;8.50;;
57331;SDS011;43164;50.908;18.092;2024-02-15T09:30:20;15.00;;;8.00;;
57331;SDS011;43164;50.908;18.092;2024-02-15T09:32:51;13.90;;;7.70;;
57331;SDS011;43164;50.908;18.092;2024-02-15T09:35:19;14.30;;;7.40;;
57331;SDS011;43164;50.908;18.092;2024-02-15T09:37:47;13.80;;;7.20;;
57331;SDS011;43164;50.908;18.092;2024-02-15T09:40:19;13.50;;;6.90;;
57331;SDS011;43164;50.908;18.092;2024-02-15T09:42:47;13.50;;;7.70;;
57331;SDS011;43164;50.908;18.092;2024-02-15T09:45:15;12.10;;;6.50;;
57331;SDS011;43164;50.908;18.092;2024-02-15T09:47:44;14.40;;;7.70;;
57331;SDS011;43164;50.908;18.092;2024-02-15T09:50:11;15.20;;;7.60;;
57331;SDS011;43164;50.908;18.092;2024-02-15T09:52:44;12.80;;;6.90;;
57331;SDS011;43164;50.908;18.092;2024-02-15T09:55:20;17.10;;;7.50;;
57331;SDS011;43164;50.908;18.092;2024-02-15T09:57:49;15.00;;;7.40;;
57331;SDS011;43164;50.908;18.092;2024-02-15T10:00:19;12.40;;;6.90;;
57331;SDS011;43164;50.908;18.092;2024-02-15T10:02:53;13.90;;;6.60;;
57331;SDS011;43164;50.908;18.092;2024-02-15T10:05:22;14.40;;;7.20;;
57331;SDS011;43164;50.908;18.092;2024-02-15T10:07:50;13.90;;;6.60;;
57331;SDS011;43164;50.908;18.092;2024-02-15T10:13:05;14.10;;;7.00;;
57331;SDS011;43164;50.908;18.092;2024-02-15T10:15:36;13.20;;;6.90;;
57331;SDS011;43164;50.908;18.092;2024-02-15T10:18:09;13.20;;;6.70;;
57331;SDS011;43164;50.908;18.092;2024-02-15T10:20:41;13.10;;;5.80;;
57331;SDS011;43164;50.908;18.092;2024-02-15T10:23:35;12.00;;;6.20;;
57331;SDS011;43164;50.908;18.092;2024-02-15T10:26:18;12.50;;;6.20;;
57331;SDS011;43164;50.908;18.092;2024-02-15T10:29:04;13.10;;;6.00;;
57331;SDS011;43164;50.908;18.092;2024-02-15T10:31:57;12.40;;;5.90;;
57331;SDS011;43164;50.908;18.092;2024-02-15T10:37:11;13.30;;;6.30;;
57331;SDS011;43164;50.908;18.092;2024-02-15T10:39:39;12.10;;;5.80;;
57331;SDS011;43164;50.908;18.092;2024-02-15T10:42:07;11.30;;;5.80;;
57331;SDS011;43164;50.908;18.092;2024-02-15T10:44:38;11.90;;;5.80;;
57331;SDS011;43164;50.908;18.092;2024-02-15T10:47:07;14.10;;;7.00;;
57331;SDS011;43164;50.908;18.092;2024-02-15T10:49:35;12.90;;;6.50;;
57331;SDS011;43164;50.908;18.092;2024-02-15T10:52:05;12.00;;;4.90;;
57331;SDS011;43164;50.908;18.092;2024-02-15T10:57:20;11.90;;;5.00;;
57331;SDS011;43164;50.908;18.092;2024-02-15T10:59:56;10.20;;;4.50;;
57331;SDS011;43164;50.908;18.092;2024-02-15T11:02:42;9.00;;;4.40;;
57331;SDS011;43164;50.908;18.092;2024-02-15T11:05:43;10.10;;;4.50;;
57331;SDS011;43164;50.908;18.092;2024-02-15T11:08:12;10.00;;;4.60;;
57331;SDS011;43164;50.908;18.092;2024-02-15T11:10:40;9.80;;;4.80;;
57331;SDS011;43164;50.908;18.092;2024-02-15T11:13:10;9.40;;;4.60;;
57331;SDS011;43164;50.908;18.092;2024-02-15T11:16:06;9.70;;;4.10;;
57331;SDS011;43164;50.908;18.092;2024-02-15T11:21:55;9.60;;;4.90;;
57331;SDS011;43164;50.908;18.092;2024-02-15T11:24:31;8.80;;;3.40;;
57331;SDS011;43164;50.908;18.092;2024-02-15T11:27:02;9.50;;;3.90;;
57331;SDS011;43164;50.908;18.092;2024-02-15T11:32:37;10.20;;;4.60;;
57331;SDS011;43164;50.908;18.092;2024-02-15T11:35:36;10.60;;;4.30;;
57331;SDS011;43164;50.908;18.092;2024-02-15T11:38:34;8.90;;;4.00;;
57331;SDS011;43164;50.908;18.092;2024-02-15T11:43:46;8.50;;;3.90;;
57331;SDS011;43164;50.908;18.092;2024-02-15T11:46:22;8.50;;;3.90;;
57331;SDS011;43164;50.908;18.092;2024-02-15T11:48:52;9.00;;;3.70;;
57331;SDS011;43164;50.908;18.092;2024-02-15T11:54:03;10.70;;;3.20;;
57331;SDS011;43164;50.908;18.092;2024-02-15T11:59:41;7.60;;;2.90;;
57331;SDS011;43164;50.908;18.092;2024-02-15T12:02:20;7.90;;;3.30;;
57331;SDS011;43164;50.908;18.092;2024-02-15T12:05:07;6.50;;;2.60;;
57331;SDS011;43164;50.908;18.092;2024-02-15T12:07:58;7.30;;;2.70;;
57331;SDS011;43164;50.908;18.092;2024-02-15T12:10:59;8.00;;;2.90;;
57331;SDS011;43164;50.908;18.092;2024-02-15T12:13:51;6.70;;;2.60;;
57331;SDS011;43164;50.908;18.092;2024-02-15T12:16:41;6.60;;;2.80;;
57331;SDS011;43164;50.908;18.092;2024-02-15T12:19:28;5.50;;;2.30;;
57331;SDS011;43164;50.908;18.092;2024-02-15T12:21:56;6.90;;;3.00;;
57331;SDS011;43164;50.908;18.092;2024-02-15T12:24:24;6.30;;;2.80;;
57331;SDS011;43164;50.908;18.092;2024-02-15T12:26:59;6.60;;;2.70;;
57331;SDS011;43164;50.908;18.092;2024-02-15T12:29:34;5.60;;;2.20;;
57331;SDS011;43164;50.908;18.092;2024-02-15T12:32:02;6.00;;;2.40;;
57331;SDS011;43164;50.908;18.092;2024-02-15T12:34:29;6.00;;;2.70;;
57331;SDS011;43164;50.908;18.092;2024-02-15T12:37:08;7.80;;;2.70;;
57331;SDS011;43164;50.908;18.092;2024-02-15T12:39:36;6.00;;;2.70;;
57331;SDS011;43164;50.908;18.092;2024-02-15T12:42:04;5.30;;;2.20;;
57331;SDS011;43164;50.908;18.092;2024-02-15T12:44:34;6.40;;;2.70;;
57331;SDS011;43164;50.908;18.092;2024-02-15T12:47:02;7.30;;;2.90;;
57331;SDS011;43164;50.908;18.092;2024-02-15T12:49:32;8.80;;;3.50;;
57331;SDS011;43164;50.908;18.092;2024-02-15T12:57:37;5.80;;;2.00;;
57331;SDS011;43164;50.908;18.092;2024-02-15T13:00:12;5.50;;;2.10;;
57331;SDS011;43164;50.908;18.092;2024-02-15T13:02:46;6.20;;;2.30;;
57331;SDS011;43164;50.908;18.092;2024-02-15T13:05:19;8.20;;;2.60;;
57331;SDS011;43164;50.908;18.092;2024-02-15T13:07:49;7.90;;;2.70;;
57331;SDS011;43164;50.908;18.092;2024-02-15T13:10:17;9.30;;;2.80;;
57331;SDS011;43164;50.908;18.092;2024-02-15T13:12:45;6.20;;;2.60;;
57331;SDS011;43164;50.908;18.092;2024-02-15T13:15:14;6.80;;;2.90;;
57331;SDS011;43164;50.908;18.092;2024-02-15T13:17:44;5.90;;;2.50;;
57331;SDS011;43164;50.908;18.092;2024-02-15T13:20:20;6.80;;;2.90;;
57331;SDS011;43164;50.908;18.092;2024-02-15T13:23:01;9.80;;;4.00;;
57331;SDS011;43164;50.908;18.092;2024-02-15T13:25:35;9.70;;;3.20;;
57331;SDS011;43164;50.908;18.092;2024-02-15T13:28:04;7.30;;;2.70;;
57331;SDS011;43164;50.908;18.092;2024-02-15T13:30:42;8.20;;;3.60;;
57331;SDS011;43164;50.908;18.092;2024-02-15T13:33:11;9.00;;;3.70;;
57331;SDS011;43164;50.908;18.092;2024-02-15T13:35:39;8.00;;;3.70;;
57331;SDS011;43164;50.908;18.092;2024-02-15T13:38:08;9.00;;;4.30;;
57331;SDS011;43164;50.908;18.092;2024-02-15T13:40:52;8.60;;;4.00;;
57331;SDS011;43164;50.908;18.092;2024-02-15T13:43:25;8.30;;;3.70;;
57331;SDS011;43164;50.908;18.092;2024-02-15T13:45:53;7.40;;;3.00;;
57331;SDS011;43164;50.908;18.092;2024-02-15T13:48:21;8.80;;;3.60;;
57331;SDS011;43164;50.908;18.092;2024-02-15T13:50:53;8.20;;;3.60;;
57331;SDS011;43164;50.908;18.092;2024-02-15T13:53:24;7.90;;;3.70;;
57331;SDS011;43164;50.908;18.092;2024-02-15T13:55:52;8.60;;;3.40;;
57331;SDS011;43164;50.908;18.092;2024-02-15T13:58:18;9.50;;;3.30;;
57331;SDS011;43164;50.908;18.092;2024-02-15T14:00:47;9.10;;;3.60;;
57331;SDS011;43164;50.908;18.092;2024-02-15T14:03:14;6.80;;;2.60;;
57331;SDS011;43164;50.908;18.092;2024-02-15T14:05:42;5.70;;;2.00;;
57331;SDS011;43164;50.908;18.092;2024-02-15T14:08:11;7.00;;;2.50;;
57331;SDS011;43164;50.908;18.092;2024-02-15T14:10:39;7.40;;;2.50;;
57331;SDS011;43164;50.908;18.092;2024-02-15T14:13:08;7.70;;;2.50;;
57331;SDS011;43164;50.908;18.092;2024-02-15T14:15:36;6.70;;;2.80;;
57331;SDS011;43164;50.908;18.092;2024-02-15T14:18:05;6.90;;;2.70;;
57331;SDS011;43164;50.908;18.092;2024-02-15T14:20:33;8.80;;;3.00;;
57331;SDS011;43164;50.908;18.092;2024-02-15T14:23:00;7.50;;;2.60;;
57331;SDS011;43164;50.908;18.092;2024-02-15T14:25:33;6.30;;;2.50;;
57331;SDS011;43164;50.908;18.092;2024-02-15T14:28:02;4.70;;;1.80;;
57331;SDS011;43164;50.908;18.092;2024-02-15T14:30:31;6.80;;;2.50;;
57331;SDS011;43164;50.908;18.092;2024-02-15T14:33:17;8.40;;;2.40;;
57331;SDS011;43164;50.908;18.092;2024-02-15T14:35:45;6.40;;;2.50;;
57331;SDS011;43164;50.908;18.092;2024-02-15T14:38:13;5.30;;;1.70;;
57331;SDS011;43164;50.908;18.092;2024-02-15T14:40:44;7.00;;;2.40;;
57331;SDS011;43164;50.908;18.092;2024-02-15T14:43:28;8.90;;;3.30;;
57331;SDS011;43164;50.908;18.092;2024-02-15T14:45:56;9.60;;;3.10;;
57331;SDS011;43164;50.908;18.092;2024-02-15T14:48:23;5.50;;;1.50;;
57331;SDS011;43164;50.908;18.092;2024-02-15T14:50:51;2.40;;;0.70;;
57331;SDS011;43164;50.908;18.092;2024-02-15T14:53:18;4.50;;;1.00;;
57331;SDS011;43164;50.908;18.092;2024-02-15T14:55:46;3.20;;;0.90;;
57331;SDS011;43164;50.908;18.092;2024-02-15T14:58:13;4.90;;;1.10;;
57331;SDS011;43164;50.908;18.092;2024-02-15T15:00:43;3.80;;;0.90;;
57331;SDS011;43164;50.908;18.092;2024-02-15T15:03:15;3.70;;;1.00;;
57331;SDS011;43164;50.908;18.092;2024-02-15T15:05:43;4.30;;;1.40;;
57331;SDS011;43164;50.908;18.092;2024-02-15T15:08:31;17.40;;;9.70;;